Time;durP1;ratioP1;P1;durP2;ratioP2;P2;SDS_P1;SDS_P2;PMS_P1;PMS_P2;Temp;Humidity;BMP_temperature;BMP_pressure;BME280_temperature;BME280_humidity;BME280_pressure;Samples;Min_cycle;Max_cycle;Signal;HPM_P1;HPM_P2
2022/03/23 00:01:03;;;;;;;17.80;10.52;;;4.40;56.20;;;;;;4997534;28;20103;-66
2022/03/23 00:03:29;;;;;;;18.25;10.55;;;4.30;56.20;;;;;;4997344;28;20469;-66
2022/03/23 00:05:55;;;;;;;17.60;11.07;;;4.30;56.40;;;;;;5001819;28;20041;-65
2022/03/23 00:08:21;;;;;;;17.80;10.55;;;4.20;56.50;;;;;;4996024;28;20561;-65
2022/03/23 00:10:48;;;;;;;18.10;10.48;;;4.20;56.70;;;;;;4992646;28;20080;-64
2022/03/23 00:13:14;;;;;;;18.65;11.10;;;4.10;56.80;;;;;;4998064;28;20037;-63
2022/03/23 00:15:40;;;;;;;18.17;10.57;;;4.10;56.90;;;;;;5000726;28;20437;-65
2022/03/23 00:18:06;;;;;;;15.48;10.35;;;4.00;56.90;;;;;;5005552;28;20414;-66
2022/03/23 00:20:33;;;;;;;17.40;10.80;;;4.00;56.80;;;;;;5001439;28;20030;-64
2022/03/23 00:22:59;;;;;;;17.60;10.65;;;4.00;56.90;;;;;;5003776;28;20034;-65
2022/03/23 00:25:26;;;;;;;17.60;10.45;;;4.00;56.90;;;;;;4998049;28;20037;-66
2022/03/23 00:27:52;;;;;;;18.15;10.90;;;4.00;56.90;;;;;;5004254;28;20441;-65
2022/03/23 00:30:18;;;;;;;18.63;11.52;;;3.90;57.00;;;;;;4999831;28;20034;-65
2022/03/23 00:32:44;;;;;;;15.45;10.13;;;3.90;57.10;;;;;;5000277;28;20041;-66
2022/03/23 00:35:09;;;;;;;20.63;11.07;;;3.90;57.10;;;;;;5002951;28;20057;-65
2022/03/23 00:37:36;;;;;;;19.02;10.57;;;3.90;57.10;;;;;;4996983;28;20125;-66
2022/03/23 00:40:02;;;;;;;19.35;10.85;;;3.80;57.10;;;;;;4996034;28;20474;-66
2022/03/23 00:42:28;;;;;;;18.00;10.52;;;3.90;57.20;;;;;;4994020;28;20030;-66
2022/03/23 00:44:54;;;;;;;17.63;10.68;;;3.80;57.20;;;;;;4996281;28;20030;-65
2022/03/23 00:47:19;;;;;;;19.33;10.45;;;3.80;57.20;;;;;;4995583;28;20375;-65
2022/03/23 00:49:45;;;;;;;17.60;10.32;;;3.80;57.30;;;;;;4995814;28;20030;-66
2022/03/23 00:52:11;;;;;;;19.13;10.85;;;3.70;57.10;;;;;;5004667;28;20121;-66
2022/03/23 00:54:37;;;;;;;16.95;10.30;;;3.70;57.00;;;;;;4997677;28;20044;-65
2022/03/23 00:57:05;;;;;;;17.90;10.70;;;3.70;56.90;;;;;;4999356;28;20042;-66
2022/03/23 00:59:31;;;;;;;18.70;10.48;;;3.70;56.90;;;;;;4998865;28;20030;-65
2022/03/23 01:01:58;;;;;;;19.42;10.52;;;3.70;56.90;;;;;;4999448;28;20030;-65
2022/03/23 01:04:24;;;;;;;15.75;9.95;;;3.70;56.70;;;;;;5002924;28;20739;-66
2022/03/23 01:06:52;;;;;;;18.60;10.52;;;3.70;56.70;;;;;;5000880;28;21289;-65
2022/03/23 01:09:22;;;;;;;16.67;10.35;;;3.80;56.90;;;;;;5005050;28;20600;-65
2022/03/23 01:11:49;;;;;;;17.70;10.18;;;3.70;57.50;;;;;;4990913;28;20034;-66
2022/03/23 01:14:14;;;;;;;16.58;10.25;;;3.70;56.80;;;;;;4997757;28;20061;-65
2022/03/23 01:16:40;;;;;;;17.13;10.73;;;3.70;56.90;;;;;;5000427;28;20487;-65
2022/03/23 01:19:06;;;;;;;16.75;10.32;;;3.70;57.10;;;;;;5000850;28;20045;-65
2022/03/23 01:21:32;;;;;;;16.58;10.50;;;3.60;57.10;;;;;;4998250;28;20041;-65
2022/03/23 01:23:57;;;;;;;18.35;10.02;;;3.60;57.20;;;;;;5002710;28;20116;-65
2022/03/23 01:26:23;;;;;;;17.45;10.43;;;3.50;57.30;;;;;;5005908;28;20465;-66
2022/03/23 01:28:49;;;;;;;17.90;9.70;;;3.50;57.30;;;;;;5004034;28;20050;-64
2022/03/23 01:31:15;;;;;;;17.67;10.63;;;3.50;57.30;;;;;;5000289;28;20514;-65
2022/03/23 01:33:41;;;;;;;17.35;10.52;;;3.40;57.30;;;;;;4998096;28;20040;-66
2022/03/23 01:36:06;;;;;;;17.95;10.48;;;3.40;57.40;;;;;;4999270;28;20868;-66
2022/03/23 01:38:32;;;;;;;17.63;10.48;;;3.40;57.50;;;;;;4997992;28;20037;-66
2022/03/23 01:40:57;;;;;;;15.88;10.02;;;3.30;57.60;;;;;;5001194;28;20230;-65
2022/03/23 01:43:24;;;;;;;18.23;10.45;;;3.30;57.60;;;;;;5000999;28;20034;-66
2022/03/23 01:45:49;;;;;;;15.75;9.68;;;3.20;57.60;;;;;;5003259;28;20030;-66
2022/03/23 01:48:15;;;;;;;20.02;10.57;;;3.20;57.70;;;;;;5006504;28;20215;-65
2022/03/23 01:50:41;;;;;;;18.23;9.90;;;3.10;57.80;;;;;;4999032;28;22283;-66
2022/03/23 01:53:07;;;;;;;16.38;9.55;;;3.10;57.90;;;;;;5002478;28;20034;-66
2022/03/23 01:55:33;;;;;;;15.23;9.82;;;3.00;58.00;;;;;;4996239;28;20128;-66
2022/03/23 01:57:59;;;;;;;20.20;10.15;;;3.00;58.20;;;;;;5009372;28;20053;-65
2022/03/23 02:00:28;;;;;;;19.58;10.48;;;3.00;58.30;;;;;;4997366;28;20038;-66
2022/03/23 02:02:54;;;;;;;16.55;9.82;;;3.00;58.30;;;;;;4998408;28;20481;-66
2022/03/23 02:05:19;;;;;;;16.75;9.75;;;2.90;58.30;;;;;;4995790;28;20052;-66
2022/03/23 02:07:45;;;;;;;16.75;10.13;;;2.90;58.30;;;;;;4997261;28;20038;-65
2022/03/23 02:10:11;;;;;;;14.75;9.90;;;2.90;58.30;;;;;;5000889;28;20548;-66
2022/03/23 02:12:38;;;;;;;15.20;9.48;;;2.80;58.40;;;;;;4992350;28;20037;-66
2022/03/23 02:15:17;;;;;;;15.50;9.65;;;2.80;58.40;;;;;;4998147;28;22063;-65
2022/03/23 02:17:45;;;;;;;17.73;10.18;;;2.80;58.70;;;;;;5001434;28;20512;-66
2022/03/23 02:20:11;;;;;;;15.98;9.65;;;2.80;58.40;;;;;;5004956;28;20124;-66
2022/03/23 02:22:37;;;;;;;17.38;10.05;;;2.70;58.50;;;;;;4995140;28;20030;-66
2022/03/23 02:25:06;;;;;;;17.63;10.02;;;2.70;58.50;;;;;;5000277;28;20662;-66
2022/03/23 02:27:34;;;;;;;18.98;10.35;;;2.70;58.50;;;;;;4997828;28;20041;-65
2022/03/23 02:30:00;;;;;;;15.27;10.10;;;2.70;58.50;;;;;;5000613;28;20030;-66
2022/03/23 02:32:25;;;;;;;23.27;10.25;;;2.70;58.50;;;;;;4993481;28;20030;-65
2022/03/23 02:34:51;;;;;;;16.30;10.40;;;2.70;58.50;;;;;;5000065;28;20648;-66
2022/03/23 02:37:16;;;;;;;15.88;9.98;;;2.70;58.60;;;;;;4997563;28;20034;-65
2022/03/23 02:39:42;;;;;;;16.45;9.40;;;2.60;58.60;;;;;;4997302;28;20031;-66
2022/03/23 02:42:08;;;;;;;14.13;9.68;;;2.60;58.60;;;;;;4997499;28;20490;-66
2022/03/23 02:44:34;;;;;;;15.50;9.60;;;2.60;58.70;;;;;;4995851;28;20029;-64
2022/03/23 02:47:01;;;;;;;17.65;10.75;;;2.50;58.70;;;;;;4990495;28;20428;-66
2022/03/23 02:49:26;;;;;;;17.17;9.40;;;2.50;58.90;;;;;;4997114;28;20026;-66
2022/03/23 02:51:53;;;;;;;14.82;9.13;;;2.50;58.90;;;;;;4991674;28;20639;-66
2022/03/23 03:03:15;;;;;;;15.60;9.15;;;2.40;59.20;;;;;;4992936;28;20141;-65
2022/03/23 03:05:40;;;;;;;16.95;9.90;;;2.30;58.70;;;;;;4995741;28;20253;-66
2022/03/23 03:10:50;;;;;;;16.47;9.60;;;2.20;59.00;;;;;;4993648;28;20041;-66
2022/03/23 03:13:16;;;;;;;14.38;9.43;;;2.20;59.10;;;;;;4994760;28;20285;-63
2022/03/23 03:15:41;;;;;;;16.15;9.07;;;2.20;59.40;;;;;;5002054;28;20030;-66
2022/03/23 03:18:07;;;;;;;12.75;8.35;;;2.10;59.40;;;;;;4999759;28;20034;-66
2022/03/23 03:20:33;;;;;;;15.75;9.88;;;2.20;59.40;;;;;;4998966;28;20113;-66
2022/03/23 03:22:58;;;;;;;17.33;9.68;;;2.10;59.30;;;;;;4995056;28;20295;-66
2022/03/23 03:25:24;;;;;;;17.92;8.88;;;2.10;59.30;;;;;;4998499;28;20038;-65
2022/03/23 03:27:50;;;;;;;15.50;9.40;;;2.20;59.50;;;;;;4999322;28;20034;-66
2022/03/23 03:30:18;;;;;;;14.98;8.75;;;2.20;59.50;;;;;;5002642;28;20413;-66
2022/03/23 03:36:06;;;;;;;15.68;9.27;;;2.20;60.00;;;;;;5002823;28;20049;-65
2022/03/23 03:38:33;;;;;;;16.52;9.27;;;2.20;59.30;;;;;;4995470;28;21092;-65
2022/03/23 03:40:58;;;;;;;15.00;9.18;;;2.20;59.40;;;;;;5002479;28;20045;-65
2022/03/23 03:43:25;;;;;;;15.27;9.25;;;2.20;59.40;;;;;;4997023;28;20034;-66
2022/03/23 03:45:52;;;;;;;17.55;9.55;;;2.20;59.50;;;;;;4998681;28;20029;-65
2022/03/23 03:48:18;;;;;;;14.55;8.57;;;2.20;59.60;;;;;;5002290;28;20124;-66
2022/03/23 03:50:44;;;;;;;15.15;8.57;;;2.20;59.50;;;;;;4997647;28;20398;-64
2022/03/23 03:53:10;;;;;;;14.43;9.13;;;2.20;59.50;;;;;;4996911;28;20437;-66
2022/03/23 03:55:37;;;;;;;16.58;9.75;;;2.20;59.30;;;;;;4998971;28;20584;-65
2022/03/23 03:58:04;;;;;;;17.40;9.45;;;2.20;60.00;;;;;;5000743;28;20585;-65
2022/03/23 04:00:30;;;;;;;17.10;9.63;;;2.20;59.40;;;;;;4998580;28;20030;-64
2022/03/23 04:02:56;;;;;;;15.20;9.50;;;2.20;59.40;;;;;;5002788;28;20563;-65
2022/03/23 04:05:22;;;;;;;14.90;9.60;;;2.20;59.40;;;;;;4995724;28;20327;-64
2022/03/23 04:07:48;;;;;;;16.65;9.40;;;2.20;59.50;;;;;;4999768;28;20029;-64
2022/03/23 04:10:15;;;;;;;16.65;9.93;;;2.20;59.60;;;;;;5000597;28;20045;-65
2022/03/23 04:12:41;;;;;;;15.52;10.05;;;2.10;59.50;;;;;;4991873;28;20042;-65
2022/03/23 04:15:07;;;;;;;18.38;9.65;;;2.10;59.60;;;;;;5000194;28;20038;-64
2022/03/23 04:17:32;;;;;;;17.08;9.25;;;2.00;59.70;;;;;;5005179;28;20130;-65
2022/03/23 04:19:58;;;;;;;15.30;9.18;;;2.00;59.70;;;;;;5003065;28;20203;-64
2022/03/23 04:22:24;;;;;;;17.52;9.50;;;2.00;59.80;;;;;;5002146;28;20131;-66
2022/03/23 04:24:50;;;;;;;18.92;9.93;;;2.00;59.80;;;;;;4999969;28;20573;-65
2022/03/23 04:27:15;;;;;;;23.05;10.52;;;1.90;59.70;;;;;;4999466;28;20080;-65
2022/03/23 04:29:41;;;;;;;24.05;10.38;;;1.90;59.70;;;;;;4997142;28;20434;-65
2022/03/23 04:32:10;;;;;;;18.95;9.95;;;1.90;59.80;;;;;;4995300;28;20121;-65
2022/03/23 04:34:36;;;;;;;19.25;10.30;;;1.90;59.90;;;;;;4998206;28;20037;-66
2022/03/23 04:37:01;;;;;;;17.77;9.40;;;1.80;59.80;;;;;;4996273;28;20750;-66
2022/03/23 04:39:27;;;;;;;18.98;10.00;;;1.80;59.90;;;;;;4997028;28;20030;-65
2022/03/23 04:41:53;;;;;;;15.27;9.77;;;1.80;60.00;;;;;;4995989;28;20049;-65
2022/03/23 04:44:18;;;;;;;19.90;9.65;;;1.80;60.00;;;;;;4996035;28;20037;-65
2022/03/23 04:46:44;;;;;;;17.70;10.02;;;1.80;60.20;;;;;;4998133;28;20040;-64
2022/03/23 04:49:10;;;;;;;16.90;9.65;;;1.70;60.20;;;;;;4999433;28;20432;-65
2022/03/23 04:51:36;;;;;;;14.32;9.38;;;1.70;60.30;;;;;;4992583;28;20042;-65
2022/03/23 04:54:02;;;;;;;16.23;9.90;;;1.70;60.20;;;;;;4995849;28;20065;-65
2022/03/23 04:56:28;;;;;;;18.00;9.82;;;1.70;60.00;;;;;;4998024;28;20033;-65
2022/03/23 04:58:54;;;;;;;16.40;8.95;;;1.70;60.00;;;;;;4999447;28;20042;-65
2022/03/23 05:01:21;;;;;;;14.65;9.50;;;1.70;60.20;;;;;;4993177;28;20426;-65
2022/03/23 05:03:47;;;;;;;14.38;8.70;;;1.60;60.20;;;;;;5000677;28;20169;-65
2022/03/23 05:06:12;;;;;;;17.77;9.30;;;1.70;60.00;;;;;;4999603;28;20054;-65
2022/03/23 05:08:38;;;;;;;18.58;10.15;;;1.70;60.10;;;;;;4992207;28;20034;-65
2022/03/23 05:11:04;;;;;;;13.73;8.85;;;1.70;60.20;;;;;;4996998;28;20042;-65
2022/03/23 05:13:30;;;;;;;18.05;9.65;;;1.60;60.20;;;;;;4999429;28;20532;-65
2022/03/23 05:15:55;;;;;;;18.33;9.95;;;1.60;60.20;;;;;;4998910;28;20053;-65
2022/03/23 05:18:21;;;;;;;15.20;8.98;;;1.50;60.10;;;;;;4995618;28;20077;-65
2022/03/23 05:20:48;;;;;;;16.58;9.75;;;1.50;60.20;;;;;;5003561;28;20034;-66
2022/03/23 05:23:14;;;;;;;15.25;8.68;;;1.50;60.30;;;;;;4995078;28;20068;-65
2022/03/23 05:25:40;;;;;;;17.33;10.15;;;1.50;60.60;;;;;;5001171;28;20145;-65
2022/03/23 05:28:08;;;;;;;17.90;10.35;;;1.50;60.60;;;;;;4995679;28;20475;-65
2022/03/23 05:30:34;;;;;;;19.92;9.90;;;1.50;60.60;;;;;;5001352;28;20084;-66
2022/03/23 05:33:01;;;;;;;17.92;9.77;;;1.50;60.50;;;;;;5000805;28;20033;-66
2022/03/23 05:35:27;;;;;;;18.23;9.88;;;1.50;60.30;;;;;;4995206;28;20026;-65
2022/03/23 05:37:53;;;;;;;19.77;10.30;;;1.50;60.20;;;;;;4995526;28;20402;-65
2022/03/23 05:40:20;;;;;;;16.48;9.55;;;1.60;60.20;;;;;;4996690;28;20042;-65
2022/03/23 05:42:46;;;;;;;16.42;9.55;;;1.60;60.20;;;;;;5000086;28;20038;-65
2022/03/23 05:45:11;;;;;;;20.33;10.70;;;1.60;60.20;;;;;;5005112;28;20026;-66
2022/03/23 05:47:39;;;;;;;20.90;11.40;;;1.70;60.20;;;;;;5007376;28;20476;-65
2022/03/23 05:50:06;;;;;;;26.08;11.23;;;1.70;60.60;;;;;;5004149;28;20441;-66
2022/03/23 05:52:31;;;;;;;23.42;11.65;;;1.70;60.60;;;;;;5005575;28;20034;-66
2022/03/23 05:54:57;;;;;;;21.95;11.38;;;1.60;60.50;;;;;;5005299;28;20378;-65
2022/03/23 05:57:22;;;;;;;26.10;10.90;;;1.60;60.50;;;;;;5006138;28;20466;-65
2022/03/23 05:59:48;;;;;;;16.20;10.43;;;1.60;60.50;;;;;;5004627;28;20038;-65
2022/03/23 06:02:14;;;;;;;28.00;11.40;;;1.60;60.60;;;;;;5004797;28;20036;-65
2022/03/23 06:04:39;;;;;;;22.75;11.55;;;1.70;60.70;;;;;;5005419;28;20034;-65
2022/03/23 06:07:05;;;;;;;24.45;11.13;;;1.70;60.90;;;;;;5006691;28;20034;-65
2022/03/23 06:09:30;;;;;;;23.52;11.32;;;1.70;60.90;;;;;;5002191;28;20030;-65
2022/03/23 06:11:57;;;;;;;22.55;11.65;;;1.70;60.90;;;;;;4998264;28;20040;-65
2022/03/23 06:14:23;;;;;;;22.52;11.55;;;1.80;61.00;;;;;;5007879;28;20109;-65
2022/03/23 06:16:50;;;;;;;19.23;10.50;;;1.80;61.10;;;;;;4999847;28;20038;-65
2022/03/23 06:19:15;;;;;;;21.17;11.07;;;1.80;61.00;;;;;;5007003;28;20045;-65
2022/03/23 06:21:41;;;;;;;19.73;12.48;;;1.80;60.90;;;;;;5006777;28;20034;-65
2022/03/23 06:24:07;;;;;;;24.02;11.93;;;1.80;61.00;;;;;;4999143;28;20168;-65
2022/03/23 06:26:33;;;;;;;22.08;11.25;;;1.90;61.20;;;;;;5004252;28;20125;-64
2022/03/23 06:28:58;;;;;;;25.25;12.07;;;1.90;61.40;;;;;;5002680;28;20040;-64
2022/03/23 06:31:24;;;;;;;25.00;12.70;;;2.00;61.50;;;;;;5005314;28;20033;-65
2022/03/23 06:33:49;;;;;;;30.67;12.52;;;2.00;61.50;;;;;;5003293;28;20412;-62
2022/03/23 06:36:15;;;;;;;27.40;12.85;;;2.10;61.70;;;;;;5006882;28;20524;-65
2022/03/23 06:38:41;;;;;;;20.33;12.55;;;2.10;61.60;;;;;;5006574;28;20120;-65
2022/03/23 06:41:07;;;;;;;26.73;12.40;;;2.20;61.60;;;;;;4993579;28;20047;-63
2022/03/23 06:43:33;;;;;;;21.52;11.95;;;2.30;61.80;;;;;;4997508;28;20034;-65
2022/03/23 06:46:00;;;;;;;24.15;12.38;;;2.40;62.00;;;;;;4998564;28;20119;-65
2022/03/23 06:48:25;;;;;;;23.95;12.35;;;2.40;62.00;;;;;;4997490;28;20037;-66
2022/03/23 06:50:51;;;;;;;22.77;11.80;;;2.50;62.10;;;;;;4995233;28;20033;-65
2022/03/23 06:53:17;;;;;;;26.70;11.57;;;2.60;62.10;;;;;;4992169;28;20068;-65
2022/03/23 06:55:42;;;;;;;29.27;15.40;;;2.60;62.20;;;;;;4995408;28;20033;-65
2022/03/23 06:58:08;;;;;;;33.72;15.57;;;2.70;62.20;;;;;;4999803;28;20100;-65
2022/03/23 07:00:34;;;;;;;33.85;16.27;;;2.80;62.10;;;;;;5004115;28;20116;-65
2022/03/23 07:02:59;;;;;;;33.03;15.10;;;2.90;62.00;;;;;;5004173;28;20111;-64
2022/03/23 07:05:25;;;;;;;23.58;12.85;;;2.90;62.00;;;;;;5006999;28;20037;-65
2022/03/23 07:10:36;;;;;;;22.88;12.40;;;3.10;61.70;;;;;;4999755;28;20088;-65
2022/03/23 07:13:03;;;;;;;24.63;11.90;;;3.20;61.60;;;;;;5001492;28;20115;-64
2022/03/23 07:15:29;;;;;;;25.85;11.90;;;3.30;61.50;;;;;;5005256;28;20121;-64
2022/03/23 07:17:55;;;;;;;20.05;12.52;;;3.50;61.50;;;;;;5005954;28;20093;-64
2022/03/23 07:20:20;;;;;;;23.08;12.18;;;3.50;61.30;;;;;;5003851;28;20040;-64
2022/03/23 07:22:46;;;;;;;29.80;12.23;;;3.60;61.10;;;;;;5004793;28;20058;-65
2022/03/23 07:25:13;;;;;;;24.60;13.07;;;3.80;61.10;;;;;;5004020;28;20117;-65
2022/03/23 07:27:39;;;;;;;28.00;13.57;;;3.90;61.20;;;;;;5002926;28;20026;-64
2022/03/23 07:30:06;;;;;;;26.25;13.30;;;4.00;61.10;;;;;;5005747;28;20038;-64
2022/03/23 07:32:31;;;;;;;24.92;12.95;;;4.10;61.20;;;;;;5005029;28;20053;-65
2022/03/23 07:34:57;;;;;;;26.45;13.55;;;4.30;61.10;;;;;;5005095;28;20118;-65
2022/03/23 07:37:23;;;;;;;23.70;13.98;;;4.40;60.90;;;;;;5004010;28;20511;-64
2022/03/23 07:39:48;;;;;;;26.05;13.45;;;4.50;60.60;;;;;;4999600;28;20038;-64
2022/03/23 07:42:14;;;;;;;28.80;13.32;;;4.70;60.60;;;;;;5001980;28;20084;-64
2022/03/23 07:44:40;;;;;;;24.95;12.80;;;4.80;60.60;;;;;;5006620;28;20022;-63
2022/03/23 07:47:12;;;;;;;18.73;12.38;;;5.00;60.50;;;;;;5004742;28;20038;-65
2022/03/23 07:49:40;;;;;;;20.27;12.45;;;5.10;60.30;;;;;;5003089;28;20137;-65
2022/03/23 07:52:05;;;;;;;26.48;12.88;;;5.20;60.00;;;;;;5007263;28;20076;-65
2022/03/23 07:54:31;;;;;;;23.38;13.18;;;5.40;59.90;;;;;;5020768;28;20066;-65
2022/03/23 07:56:58;;;;;;;25.52;12.80;;;5.60;59.70;;;;;;5001120;28;20092;-65
2022/03/23 07:59:24;;;;;;;24.40;13.18;;;5.70;60.30;;;;;;5005761;28;20030;-64
2022/03/23 08:01:49;;;;;;;21.80;13.30;;;5.80;59.40;;;;;;5006393;28;20039;-65
2022/03/23 08:04:15;;;;;;;23.70;12.50;;;5.90;59.10;;;;;;4998843;28;20141;-65
2022/03/23 08:06:40;;;;;;;21.90;13.43;;;6.10;58.90;;;;;;5002669;28;20030;-65
2022/03/23 08:09:06;;;;;;;20.67;12.40;;;6.20;58.90;;;;;;5006655;28;20551;-65
2022/03/23 08:11:32;;;;;;;22.50;12.27;;;6.30;58.90;;;;;;4998693;28;20255;-63
2022/03/23 08:13:58;;;;;;;18.83;12.10;;;6.40;58.70;;;;;;5001088;28;20037;-65
2022/03/23 08:16:24;;;;;;;23.38;12.82;;;6.50;58.50;;;;;;5004106;28;20596;-66
2022/03/23 08:18:52;;;;;;;21.13;11.75;;;6.70;58.40;;;;;;5007442;28;20026;-65
2022/03/23 08:21:19;;;;;;;17.77;11.27;;;6.80;58.10;;;;;;5008712;28;20510;-66
2022/03/23 08:23:45;;;;;;;19.73;11.57;;;6.90;57.80;;;;;;5007973;28;20038;-65
2022/03/23 08:26:14;;;;;;;17.67;11.23;;;7.10;57.60;;;;;;5011431;28;20038;-65
2022/03/23 08:28:41;;;;;;;18.20;11.73;;;7.20;57.50;;;;;;5005269;28;20488;-65
2022/03/23 08:31:07;;;;;;;17.15;11.38;;;7.30;57.20;;;;;;5005030;28;20038;-65
2022/03/23 08:33:34;;;;;;;23.05;12.52;;;7.50;57.00;;;;;;5008418;28;20464;-65
2022/03/23 08:36:01;;;;;;;22.60;12.38;;;7.50;57.00;;;;;;5007109;28;20038;-65
2022/03/23 08:38:27;;;;;;;18.05;12.00;;;7.70;56.80;;;;;;5009807;28;20033;-65
2022/03/23 08:40:53;;;;;;;18.67;11.38;;;7.80;56.60;;;;;;5010499;28;20038;-64
2022/03/23 08:43:19;;;;;;;19.92;12.00;;;7.90;56.50;;;;;;5005459;28;20041;-65
2022/03/23 08:45:44;;;;;;;19.00;11.60;;;8.00;56.30;;;;;;5008539;28;20030;-65
2022/03/23 08:48:10;;;;;;;19.90;12.18;;;8.10;56.10;;;;;;5007237;28;20034;-65
2022/03/23 08:50:36;;;;;;;17.42;11.75;;;8.30;56.00;;;;;;5005460;28;20893;-66
2022/03/23 08:53:03;;;;;;;24.25;12.57;;;8.40;56.00;;;;;;5009672;28;20041;-65
2022/03/23 08:55:30;;;;;;;22.92;12.68;;;8.50;55.70;;;;;;5009574;28;20084;-65
2022/03/23 08:57:55;;;;;;;23.77;12.48;;;8.60;55.50;;;;;;5007878;28;20080;-65
2022/03/23 09:00:21;;;;;;;21.80;13.18;;;8.70;55.30;;;;;;5001579;28;20506;-66
2022/03/23 09:02:47;;;;;;;16.65;11.82;;;8.80;55.20;;;;;;5000049;28;20101;-65
2022/03/23 09:05:14;;;;;;;18.67;12.18;;;8.90;55.00;;;;;;5009510;28;20034;-65
2022/03/23 09:07:43;;;;;;;17.80;12.43;;;9.10;54.90;;;;;;5007104;28;20434;-65
2022/03/23 09:10:10;;;;;;;21.25;12.45;;;9.20;54.50;;;;;;5006520;28;20057;-65
2022/03/23 09:12:36;;;;;;;20.90;12.07;;;9.40;54.50;;;;;;4997308;28;20057;-66
2022/03/23 09:15:04;;;;;;;21.42;11.73;;;9.50;54.20;;;;;;5003344;28;20318;-66
2022/03/23 09:17:29;;;;;;;23.30;11.25;;;9.60;54.00;;;;;;5007668;28;20060;-65
2022/03/23 09:19:55;;;;;;;18.23;12.18;;;9.80;54.00;;;;;;5009049;28;20061;-65
2022/03/23 09:22:21;;;;;;;20.70;11.40;;;9.90;53.90;;;;;;5006181;28;20049;-66
2022/03/23 09:24:47;;;;;;;18.90;11.27;;;10.00;53.60;;;;;;5010099;28;20033;-66
2022/03/23 09:27:14;;;;;;;17.33;11.63;;;10.10;54.10;;;;;;5010236;28;20041;-66
2022/03/23 09:29:40;;;;;;;18.58;12.52;;;10.20;53.00;;;;;;5005617;28;20491;-64
2022/03/23 09:32:12;;;;;;;18.48;11.27;;;10.40;52.60;;;;;;5005980;28;20030;-65
2022/03/23 09:34:38;;;;;;;19.83;11.77;;;10.50;53.10;;;;;;5009651;28;20228;-65
2022/03/23 09:39:51;;;;;;;22.20;12.18;;;10.70;51.90;;;;;;5006706;28;20111;-65
2022/03/23 09:42:18;;;;;;;19.25;11.50;;;10.90;51.70;;;;;;5001452;28;20037;-65
2022/03/23 09:44:47;;;;;;;18.65;12.43;;;11.00;51.50;;;;;;5006471;28;20378;-66
2022/03/23 09:47:14;;;;;;;17.75;11.65;;;11.10;51.20;;;;;;5003225;28;20076;-65
2022/03/23 09:49:39;;;;;;;17.65;11.75;;;11.20;51.30;;;;;;5008791;28;20083;-65
2022/03/23 09:52:05;;;;;;;15.13;10.45;;;11.40;51.00;;;;;;5009485;28;20440;-66
2022/03/23 09:54:31;;;;;;;14.18;9.98;;;11.50;51.00;;;;;;5005964;28;20022;-66
2022/03/23 09:56:57;;;;;;;16.63;10.35;;;11.60;51.00;;;;;;5009405;28;20033;-66
2022/03/23 09:59:23;;;;;;;17.10;10.68;;;11.80;50.80;;;;;;5006220;28;20026;-66
2022/03/23 10:01:51;;;;;;;17.80;11.25;;;11.90;50.60;;;;;;5002693;28;20513;-66
2022/03/23 10:04:20;;;;;;;18.02;10.93;;;12.00;50.30;;;;;;5008546;28;20041;-65
2022/03/23 10:07:13;;;;;;;15.68;11.27;;;12.20;50.20;;;;;;5007375;28;20177;-66
2022/03/23 10:10:19;;;;;;;15.82;10.18;;;12.40;49.50;;;;;;5005215;28;20033;-65
2022/03/23 10:13:13;;;;;;;17.08;10.45;;;12.50;48.60;;;;;;4998100;28;20026;-66
2022/03/23 10:16:27;;;;;;;15.60;10.32;;;12.70;48.60;;;;;;5007675;28;20036;-66
2022/03/23 10:19:00;;;;;;;16.10;10.27;;;12.90;47.20;;;;;;5010156;28;20513;-65
2022/03/23 10:21:31;;;;;;;14.60;9.45;;;13.00;47.90;;;;;;5028025;28;20033;-66
2022/03/23 10:23:59;;;;;;;14.63;9.73;;;13.10;48.10;;;;;;5026296;28;20030;-66
2022/03/23 10:26:29;;;;;;;11.73;8.50;;;13.20;47.80;;;;;;5024425;28;20033;-66
2022/03/23 10:28:57;;;;;;;13.27;8.70;;;13.30;47.00;;;;;;5026921;28;20068;-66
2022/03/23 10:31:25;;;;;;;12.82;8.10;;;13.50;47.00;;;;;;5027548;28;20045;-66
2022/03/23 10:33:57;;;;;;;14.20;8.80;;;13.60;46.30;;;;;;5024264;28;20038;-66
2022/03/23 10:36:27;;;;;;;12.45;7.40;;;13.80;45.30;;;;;;5028393;28;20091;-66
2022/03/23 10:39:01;;;;;;;14.10;7.85;;;13.90;45.30;;;;;;5019957;28;20927;-65
2022/03/23 10:41:27;;;;;;;8.93;7.68;;;14.00;44.40;;;;;;5024699;28;20034;-66
2022/03/23 10:43:53;;;;;;;8.63;7.07;;;14.10;44.00;;;;;;5027174;28;20034;-66
2022/03/23 10:46:20;;;;;;;8.40;6.70;;;14.20;43.70;;;;;;5021554;28;20651;-65
2022/03/23 10:48:59;;;;;;;10.40;7.68;;;14.30;43.30;;;;;;5038335;28;20420;-66
2022/03/23 10:51:35;;;;;;;9.88;8.15;;;14.40;42.70;;;;;;5028272;28;20103;-66
2022/03/23 10:54:21;;;;;;;11.05;8.30;;;14.50;42.70;;;;;;5027966;28;20068;-66
2022/03/23 10:56:47;;;;;;;12.48;8.43;;;14.60;42.20;;;;;;5026767;28;20094;-65
2022/03/23 10:59:56;;;;;;;12.95;8.75;;;14.80;43.10;;;;;;5025093;28;20535;-66
2022/03/23 11:02:22;;;;;;;10.25;8.00;;;14.90;41.50;;;;;;5024651;28;20037;-66
2022/03/23 11:04:53;;;;;;;12.00;9.40;;;15.00;42.60;;;;;;5021825;28;20049;-65
2022/03/23 11:07:31;;;;;;;11.48;8.30;;;15.10;41.60;;;;;;5027297;28;20064;-65
2022/03/23 11:15:46;;;;;;;9.85;8.20;;;15.40;41.20;;;;;;5026948;28;20524;-66
2022/03/23 11:18:18;;;;;;;11.90;8.77;;;15.50;41.50;;;;;;5023262;28;20199;-63
2022/03/23 11:20:43;;;;;;;11.00;9.07;;;15.50;40.40;;;;;;5023703;28;20037;-66
2022/03/23 11:23:25;;;;;;;12.23;9.32;;;15.60;40.60;;;;;;5023713;28;20033;-65
2022/03/23 11:25:53;;;;;;;9.82;8.27;;;15.60;39.00;;;;;;5025624;28;20026;-66
2022/03/23 11:28:20;;;;;;;11.85;8.63;;;15.70;40.10;;;;;;5022532;28;20048;-66
2022/03/23 11:30:48;;;;;;;10.85;8.65;;;15.80;40.70;;;;;;5026736;28;20087;-66
2022/03/23 11:33:21;;;;;;;14.23;9.07;;;15.80;40.60;;;;;;5022398;28;20038;-66
2022/03/23 11:35:48;;;;;;;12.60;8.90;;;15.90;40.10;;;;;;5026387;28;20030;-66
2022/03/23 11:38:19;;;;;;;9.95;8.75;;;15.90;40.30;;;;;;5026329;28;20441;-66
2022/03/23 11:40:47;;;;;;;11.43;8.90;;;16.00;39.80;;;;;;5022975;28;20041;-66
2022/03/23 11:43:14;;;;;;;12.20;9.00;;;16.00;40.20;;;;;;5021905;28;20041;-66
2022/03/23 11:45:42;;;;;;;10.60;9.20;;;16.10;40.30;;;;;;5025035;28;20048;-66
2022/03/23 11:48:18;;;;;;;11.77;8.18;;;16.10;40.40;;;;;;5025934;28;20079;-66
2022/03/23 11:51:01;;;;;;;10.82;8.75;;;16.20;40.20;;;;;;5021287;28;20505;-66
2022/03/23 11:53:39;;;;;;;13.57;9.07;;;16.30;39.30;;;;;;5022082;28;20060;-66
2022/03/23 11:56:05;;;;;;;13.57;9.30;;;16.50;39.60;;;;;;5028591;28;20037;-64
2022/03/23 11:58:37;;;;;;;10.73;8.60;;;16.60;39.90;;;;;;5028865;28;20072;-66
2022/03/23 12:01:11;;;;;;;10.40;8.55;;;16.60;39.10;;;;;;5029022;28;20045;-66
2022/03/23 12:04:02;;;;;;;12.02;9.05;;;16.70;39.20;;;;;;5027300;28;20386;-65
2022/03/23 12:06:41;;;;;;;12.63;9.20;;;16.80;36.50;;;;;;5024023;28;20291;-67
2022/03/23 12:09:08;;;;;;;12.32;9.25;;;16.90;37.60;;;;;;5030318;28;20034;-66
2022/03/23 12:11:35;;;;;;;12.98;8.98;;;17.00;39.00;;;;;;5020213;28;20038;-66
2022/03/23 12:14:05;;;;;;;11.10;9.40;;;17.10;39.10;;;;;;5027033;28;20029;-66
2022/03/23 12:17:16;;;;;;;14.20;9.30;;;17.10;38.50;;;;;;5027793;28;20079;-66
2022/03/23 12:20:00;;;;;;;10.63;9.07;;;17.30;38.00;;;;;;5029222;28;20022;-66
2022/03/23 12:22:35;;;;;;;11.90;8.70;;;17.30;37.80;;;;;;5026693;28;20041;-65
2022/03/23 12:25:12;;;;;;;13.10;8.95;;;17.40;38.30;;;;;;5030477;28;20025;-66
2022/03/23 12:28:00;;;;;;;15.73;10.02;;;17.50;38.80;;;;;;5029125;28;20527;-66
2022/03/23 12:30:25;;;;;;;13.10;9.38;;;17.50;38.40;;;;;;5027548;28;20041;-65
2022/03/23 12:32:54;;;;;;;14.20;9.20;;;17.60;39.20;;;;;;5025493;28;20060;-65
2022/03/23 12:35:47;;;;;;;12.18;9.48;;;17.60;38.30;;;;;;5028057;28;20036;-66
2022/03/23 12:38:24;;;;;;;13.05;10.15;;;17.70;37.30;;;;;;5025094;28;20417;-66
2022/03/23 12:40:51;;;;;;;14.02;9.63;;;17.70;36.70;;;;;;5029333;28;20045;-66
2022/03/23 12:43:52;;;;;;;13.60;9.48;;;17.70;37.70;;;;;;5025286;28;20163;-66
2022/03/23 12:46:22;;;;;;;12.55;9.15;;;17.70;37.20;;;;;;5045077;28;20052;-66
2022/03/23 13:00:25;;;;;;;10.88;8.27;;;17.90;37.10;;;;;;5026002;28;20044;-66
2022/03/23 13:03:07;;;;;;;10.02;8.45;;;17.90;36.90;;;;;;5023063;28;20030;-67
2022/03/23 13:05:37;;;;;;;10.18;8.35;;;17.90;35.70;;;;;;5029263;28;20128;-66
2022/03/23 13:08:33;;;;;;;10.15;8.00;;;18.00;35.70;;;;;;5025334;28;20588;-66
2022/03/23 13:11:00;;;;;;;9.68;8.40;;;18.00;34.30;;;;;;5021242;28;20041;-66
2022/03/23 13:13:32;;;;;;;11.10;8.85;;;18.00;35.50;;;;;;5026482;28;20034;-66
2022/03/23 13:15:58;;;;;;;10.80;9.65;;;18.00;35.40;;;;;;5028359;28;20586;-66
2022/03/23 13:18:26;;;;;;;12.32;10.45;;;18.00;33.90;;;;;;5028635;28;20389;-66
2022/03/23 13:20:52;;;;;;;15.52;9.85;;;18.00;34.20;;;;;;5024629;28;20118;-66